sensor_id;sensor_type;location;lat;lon;timestamp;P1;durP1;ratioP1;P2;durP2;ratioP2
58661;SDS011;44432;49.786;22.760;2023-09-19T00:01:31;9.80;;;6.20;;
58661;SDS011;44432;49.786;22.760;2023-09-19T00:04:01;12.00;;;7.10;;
58661;SDS011;44432;49.786;22.760;2023-09-19T00:06:37;10.00;;;6.50;;
58661;SDS011;44432;49.786;22.760;2023-09-19T00:09:08;9.50;;;6.50;;
58661;SDS011;44432;49.786;22.760;2023-09-19T00:11:39;10.10;;;6.70;;
58661;SDS011;44432;49.786;22.760;2023-09-19T00:14:09;8.60;;;6.00;;
58661;SDS011;44432;49.786;22.760;2023-09-19T00:16:42;12.70;;;6.60;;
58661;SDS011;44432;49.786;22.760;2023-09-19T00:19:14;13.10;;;6.30;;
58661;SDS011;44432;49.786;22.760;2023-09-19T00:21:45;7.50;;;6.30;;
58661;SDS011;44432;49.786;22.760;2023-09-19T00:24:16;9.50;;;6.20;;
58661;SDS011;44432;49.786;22.760;2023-09-19T00:26:46;8.00;;;6.20;;
58661;SDS011;44432;49.786;22.760;2023-09-19T00:29:17;8.70;;;6.40;;
58661;SDS011;44432;49.786;22.760;2023-09-19T00:31:47;9.80;;;6.80;;
58661;SDS011;44432;49.786;22.760;2023-09-19T00:34:18;11.80;;;6.60;;
58661;SDS011;44432;49.786;22.760;2023-09-19T00:36:50;12.50;;;9.50;;
58661;SDS011;44432;49.786;22.760;2023-09-19T00:39:22;10.10;;;7.70;;
58661;SDS011;44432;49.786;22.760;2023-09-19T00:41:53;8.10;;;6.20;;
58661;SDS011;44432;49.786;22.760;2023-09-19T00:44:24;9.50;;;6.20;;
58661;SDS011;44432;49.786;22.760;2023-09-19T00:46:54;8.80;;;6.10;;
58661;SDS011;44432;49.786;22.760;2023-09-19T00:49:26;9.70;;;6.30;;
58661;SDS011;44432;49.786;22.760;2023-09-19T00:51:58;8.90;;;6.20;;
58661;SDS011;44432;49.786;22.760;2023-09-19T00:54:29;9.90;;;6.90;;
58661;SDS011;44432;49.786;22.760;2023-09-19T00:57:01;10.30;;;6.30;;
58661;SDS011;44432;49.786;22.760;2023-09-19T00:59:32;8.40;;;6.50;;
58661;SDS011;44432;49.786;22.760;2023-09-19T01:02:03;8.80;;;6.60;;
58661;SDS011;44432;49.786;22.760;2023-09-19T01:04:35;9.30;;;6.20;;
58661;SDS011;44432;49.786;22.760;2023-09-19T01:07:07;9.00;;;5.80;;
58661;SDS011;44432;49.786;22.760;2023-09-19T01:09:38;8.10;;;6.20;;
58661;SDS011;44432;49.786;22.760;2023-09-19T01:12:10;8.50;;;5.90;;
58661;SDS011;44432;49.786;22.760;2023-09-19T01:14:47;11.30;;;6.90;;
58661;SDS011;44432;49.786;22.760;2023-09-19T01:17:27;9.60;;;5.80;;
58661;SDS011;44432;49.786;22.760;2023-09-19T01:20:15;8.90;;;6.00;;
58661;SDS011;44432;49.786;22.760;2023-09-19T01:22:56;11.70;;;6.80;;
58661;SDS011;44432;49.786;22.760;2023-09-19T01:25:42;10.20;;;6.40;;
58661;SDS011;44432;49.786;22.760;2023-09-19T01:28:51;8.50;;;6.00;;
58661;SDS011;44432;49.786;22.760;2023-09-19T01:31:31;9.80;;;6.20;;
58661;SDS011;44432;49.786;22.760;2023-09-19T01:34:07;7.80;;;6.20;;
58661;SDS011;44432;49.786;22.760;2023-09-19T01:36:38;8.50;;;6.20;;
58661;SDS011;44432;49.786;22.760;2023-09-19T01:39:09;8.40;;;5.80;;
58661;SDS011;44432;49.786;22.760;2023-09-19T01:41:45;7.70;;;6.20;;
58661;SDS011;44432;49.786;22.760;2023-09-19T01:44:24;8.60;;;7.00;;
58661;SDS011;44432;49.786;22.760;2023-09-19T01:47:13;8.50;;;5.90;;
58661;SDS011;44432;49.786;22.760;2023-09-19T01:49:55;7.70;;;5.80;;
58661;SDS011;44432;49.786;22.760;2023-09-19T01:52:36;8.50;;;6.60;;
58661;SDS011;44432;49.786;22.760;2023-09-19T01:55:15;8.00;;;6.40;;
58661;SDS011;44432;49.786;22.760;2023-09-19T01:57:51;7.00;;;6.20;;
58661;SDS011;44432;49.786;22.760;2023-09-19T02:00:32;10.00;;;6.20;;
58661;SDS011;44432;49.786;22.760;2023-09-19T02:03:06;8.20;;;6.10;;
58661;SDS011;44432;49.786;22.760;2023-09-19T02:05:38;8.70;;;6.20;;
58661;SDS011;44432;49.786;22.760;2023-09-19T02:08:09;10.50;;;6.70;;
58661;SDS011;44432;49.786;22.760;2023-09-19T02:10:39;9.90;;;6.60;;
58661;SDS011;44432;49.786;22.760;2023-09-19T02:13:10;10.80;;;6.90;;
58661;SDS011;44432;49.786;22.760;2023-09-19T02:15:41;10.60;;;6.90;;
58661;SDS011;44432;49.786;22.760;2023-09-19T02:18:13;7.30;;;6.50;;
58661;SDS011;44432;49.786;22.760;2023-09-19T02:20:43;8.30;;;6.50;;
58661;SDS011;44432;49.786;22.760;2023-09-19T02:23:15;12.10;;;6.70;;
58661;SDS011;44432;49.786;22.760;2023-09-19T02:25:52;8.50;;;6.20;;
58661;SDS011;44432;49.786;22.760;2023-09-19T02:28:26;10.40;;;7.80;;
58661;SDS011;44432;49.786;22.760;2023-09-19T02:30:59;11.90;;;7.50;;
58661;SDS011;44432;49.786;22.760;2023-09-19T02:33:32;9.80;;;7.00;;
58661;SDS011;44432;49.786;22.760;2023-09-19T02:36:05;10.30;;;7.10;;
58661;SDS011;44432;49.786;22.760;2023-09-19T02:38:36;12.20;;;7.30;;
58661;SDS011;44432;49.786;22.760;2023-09-19T02:41:07;13.20;;;7.40;;
58661;SDS011;44432;49.786;22.760;2023-09-19T02:43:38;9.10;;;7.30;;
58661;SDS011;44432;49.786;22.760;2023-09-19T02:46:10;10.30;;;7.10;;
58661;SDS011;44432;49.786;22.760;2023-09-19T02:48:41;9.60;;;6.90;;
58661;SDS011;44432;49.786;22.760;2023-09-19T02:51:12;10.70;;;7.30;;
58661;SDS011;44432;49.786;22.760;2023-09-19T02:53:43;10.90;;;7.40;;
58661;SDS011;44432;49.786;22.760;2023-09-19T02:56:15;9.40;;;6.70;;
58661;SDS011;44432;49.786;22.760;2023-09-19T02:58:46;8.70;;;7.00;;
58661;SDS011;44432;49.786;22.760;2023-09-19T03:01:17;11.30;;;7.10;;
58661;SDS011;44432;49.786;22.760;2023-09-19T03:03:47;10.10;;;7.00;;
58661;SDS011;44432;49.786;22.760;2023-09-19T03:06:18;8.60;;;6.70;;
58661;SDS011;44432;49.786;22.760;2023-09-19T03:08:49;10.30;;;7.60;;
58661;SDS011;44432;49.786;22.760;2023-09-19T03:11:20;11.40;;;7.70;;
58661;SDS011;44432;49.786;22.760;2023-09-19T03:13:53;11.20;;;6.90;;
58661;SDS011;44432;49.786;22.760;2023-09-19T03:16:24;11.20;;;7.40;;
58661;SDS011;44432;49.786;22.760;2023-09-19T03:18:55;9.50;;;6.90;;
58661;SDS011;44432;49.786;22.760;2023-09-19T03:21:26;10.50;;;7.10;;
58661;SDS011;44432;49.786;22.760;2023-09-19T03:23:57;12.20;;;7.30;;
58661;SDS011;44432;49.786;22.760;2023-09-19T03:26:28;11.90;;;6.90;;
58661;SDS011;44432;49.786;22.760;2023-09-19T03:28:58;10.70;;;7.00;;
58661;SDS011;44432;49.786;22.760;2023-09-19T03:31:34;8.10;;;7.00;;
58661;SDS011;44432;49.786;22.760;2023-09-19T03:34:05;11.40;;;7.30;;
58661;SDS011;44432;49.786;22.760;2023-09-19T03:36:36;10.90;;;7.10;;
58661;SDS011;44432;49.786;22.760;2023-09-19T03:39:08;8.30;;;6.50;;
58661;SDS011;44432;49.786;22.760;2023-09-19T03:41:39;12.20;;;7.10;;
58661;SDS011;44432;49.786;22.760;2023-09-19T03:44:10;10.40;;;7.20;;
58661;SDS011;44432;49.786;22.760;2023-09-19T03:46:40;8.50;;;6.80;;
58661;SDS011;44432;49.786;22.760;2023-09-19T03:49:11;11.80;;;7.00;;
58661;SDS011;44432;49.786;22.760;2023-09-19T03:51:42;9.70;;;6.60;;
58661;SDS011;44432;49.786;22.760;2023-09-19T03:54:12;13.10;;;7.30;;
58661;SDS011;44432;49.786;22.760;2023-09-19T03:56:44;11.50;;;7.20;;
58661;SDS011;44432;49.786;22.760;2023-09-19T03:59:15;11.00;;;7.20;;
58661;SDS011;44432;49.786;22.760;2023-09-19T04:01:47;11.90;;;8.30;;
58661;SDS011;44432;49.786;22.760;2023-09-19T04:04:18;10.10;;;7.70;;
58661;SDS011;44432;49.786;22.760;2023-09-19T04:06:49;14.30;;;8.40;;
58661;SDS011;44432;49.786;22.760;2023-09-19T04:09:19;9.50;;;7.60;;
58661;SDS011;44432;49.786;22.760;2023-09-19T04:11:50;12.30;;;7.60;;
58661;SDS011;44432;49.786;22.760;2023-09-19T04:14:21;9.90;;;7.50;;
58661;SDS011;44432;49.786;22.760;2023-09-19T04:16:52;9.60;;;7.90;;
58661;SDS011;44432;49.786;22.760;2023-09-19T04:19:23;9.40;;;7.50;;
58661;SDS011;44432;49.786;22.760;2023-09-19T04:21:53;12.10;;;8.90;;
58661;SDS011;44432;49.786;22.760;2023-09-19T04:24:24;10.70;;;7.60;;
58661;SDS011;44432;49.786;22.760;2023-09-19T04:26:55;11.10;;;7.30;;
58661;SDS011;44432;49.786;22.760;2023-09-19T04:29:27;10.80;;;7.50;;
58661;SDS011;44432;49.786;22.760;2023-09-19T04:31:58;9.10;;;6.90;;
58661;SDS011;44432;49.786;22.760;2023-09-19T04:34:28;10.00;;;7.30;;
58661;SDS011;44432;49.786;22.760;2023-09-19T04:36:59;10.20;;;8.30;;
58661;SDS011;44432;49.786;22.760;2023-09-19T04:39:31;10.10;;;7.90;;
58661;SDS011;44432;49.786;22.760;2023-09-19T04:42:03;11.40;;;8.20;;
58661;SDS011;44432;49.786;22.760;2023-09-19T04:44:34;10.80;;;8.40;;
58661;SDS011;44432;49.786;22.760;2023-09-19T04:47:06;9.00;;;7.70;;
58661;SDS011;44432;49.786;22.760;2023-09-19T04:49:38;10.60;;;7.90;;
58661;SDS011;44432;49.786;22.760;2023-09-19T04:52:08;9.90;;;7.90;;
58661;SDS011;44432;49.786;22.760;2023-09-19T04:54:39;15.50;;;8.30;;
58661;SDS011;44432;49.786;22.760;2023-09-19T04:57:10;15.60;;;8.80;;
58661;SDS011;44432;49.786;22.760;2023-09-19T04:59:41;13.10;;;9.80;;
58661;SDS011;44432;49.786;22.760;2023-09-19T05:02:11;14.50;;;8.30;;
58661;SDS011;44432;49.786;22.760;2023-09-19T05:04:42;10.70;;;8.70;;
58661;SDS011;44432;49.786;22.760;2023-09-19T05:07:13;11.50;;;9.90;;
58661;SDS011;44432;49.786;22.760;2023-09-19T05:09:45;11.40;;;8.60;;
58661;SDS011;44432;49.786;22.760;2023-09-19T05:12:29;11.10;;;8.60;;
58661;SDS011;44432;49.786;22.760;2023-09-19T05:15:00;13.00;;;10.90;;
58661;SDS011;44432;49.786;22.760;2023-09-19T05:17:32;11.40;;;9.70;;
58661;SDS011;44432;49.786;22.760;2023-09-19T05:20:04;11.90;;;9.40;;
58661;SDS011;44432;49.786;22.760;2023-09-19T05:22:58;10.60;;;8.40;;
58661;SDS011;44432;49.786;22.760;2023-09-19T05:25:36;12.50;;;10.20;;
58661;SDS011;44432;49.786;22.760;2023-09-19T05:28:07;12.80;;;8.60;;
58661;SDS011;44432;49.786;22.760;2023-09-19T05:30:41;10.50;;;8.20;;
58661;SDS011;44432;49.786;22.760;2023-09-19T05:33:12;10.40;;;8.40;;
58661;SDS011;44432;49.786;22.760;2023-09-19T05:35:43;10.80;;;8.10;;
58661;SDS011;44432;49.786;22.760;2023-09-19T05:38:14;11.50;;;9.20;;
58661;SDS011;44432;49.786;22.760;2023-09-19T05:40:47;13.10;;;9.80;;
58661;SDS011;44432;49.786;22.760;2023-09-19T05:43:17;10.60;;;8.50;;
58661;SDS011;44432;49.786;22.760;2023-09-19T05:45:48;10.60;;;8.60;;
58661;SDS011;44432;49.786;22.760;2023-09-19T05:48:20;10.60;;;9.10;;
58661;SDS011;44432;49.786;22.760;2023-09-19T05:50:50;14.70;;;8.80;;
58661;SDS011;44432;49.786;22.760;2023-09-19T05:53:21;12.40;;;9.10;;
58661;SDS011;44432;49.786;22.760;2023-09-19T05:55:52;15.20;;;11.90;;
58661;SDS011;44432;49.786;22.760;2023-09-19T05:58:23;16.00;;;10.70;;
58661;SDS011;44432;49.786;22.760;2023-09-19T06:00:54;15.10;;;10.20;;
58661;SDS011;44432;49.786;22.760;2023-09-19T06:03:25;12.40;;;9.70;;
58661;SDS011;44432;49.786;22.760;2023-09-19T06:05:57;14.60;;;10.50;;
58661;SDS011;44432;49.786;22.760;2023-09-19T06:08:27;16.60;;;9.20;;
58661;SDS011;44432;49.786;22.760;2023-09-19T06:10:58;12.30;;;9.30;;
58661;SDS011;44432;49.786;22.760;2023-09-19T06:13:30;15.80;;;11.50;;
58661;SDS011;44432;49.786;22.760;2023-09-19T06:16:01;10.80;;;9.70;;
58661;SDS011;44432;49.786;22.760;2023-09-19T06:18:32;13.40;;;9.50;;
58661;SDS011;44432;49.786;22.760;2023-09-19T06:21:04;16.30;;;9.60;;
58661;SDS011;44432;49.786;22.760;2023-09-19T06:23:35;13.50;;;9.90;;
58661;SDS011;44432;49.786;22.760;2023-09-19T06:26:06;11.90;;;9.20;;
58661;SDS011;44432;49.786;22.760;2023-09-19T06:28:37;11.70;;;9.30;;
58661;SDS011;44432;49.786;22.760;2023-09-19T06:31:08;14.30;;;10.40;;
58661;SDS011;44432;49.786;22.760;2023-09-19T06:33:39;11.40;;;8.80;;
58661;SDS011;44432;49.786;22.760;2023-09-19T06:36:11;12.20;;;9.00;;
58661;SDS011;44432;49.786;22.760;2023-09-19T06:38:41;12.80;;;9.20;;
58661;SDS011;44432;49.786;22.760;2023-09-19T06:41:12;11.60;;;8.20;;
58661;SDS011;44432;49.786;22.760;2023-09-19T06:46:14;12.90;;;9.00;;
58661;SDS011;44432;49.786;22.760;2023-09-19T06:48:45;11.80;;;8.70;;
58661;SDS011;44432;49.786;22.760;2023-09-19T06:51:17;13.20;;;9.30;;
58661;SDS011;44432;49.786;22.760;2023-09-19T06:53:47;11.50;;;8.70;;
58661;SDS011;44432;49.786;22.760;2023-09-19T06:56:19;11.80;;;9.10;;
58661;SDS011;44432;49.786;22.760;2023-09-19T06:58:51;13.00;;;9.40;;
58661;SDS011;44432;49.786;22.760;2023-09-19T07:01:21;9.30;;;8.00;;
58661;SDS011;44432;49.786;22.760;2023-09-19T07:03:53;11.80;;;8.30;;
58661;SDS011;44432;49.786;22.760;2023-09-19T07:06:23;10.70;;;9.60;;
58661;SDS011;44432;49.786;22.760;2023-09-19T07:08:54;11.60;;;8.40;;
58661;SDS011;44432;49.786;22.760;2023-09-19T07:11:25;11.50;;;8.20;;
58661;SDS011;44432;49.786;22.760;2023-09-19T07:13:55;9.70;;;7.80;;
58661;SDS011;44432;49.786;22.760;2023-09-19T07:16:27;11.50;;;7.60;;
58661;SDS011;44432;49.786;22.760;2023-09-19T07:18:58;12.50;;;8.40;;
58661;SDS011;44432;49.786;22.760;2023-09-19T07:21:29;9.70;;;8.00;;
58661;SDS011;44432;49.786;22.760;2023-09-19T07:24:03;11.80;;;7.60;;
58661;SDS011;44432;49.786;22.760;2023-09-19T07:26:36;9.40;;;6.90;;
58661;SDS011;44432;49.786;22.760;2023-09-19T07:29:07;10.10;;;6.80;;
58661;SDS011;44432;49.786;22.760;2023-09-19T07:31:38;8.50;;;6.30;;
58661;SDS011;44432;49.786;22.760;2023-09-19T07:34:09;10.20;;;7.20;;
58661;SDS011;44432;49.786;22.760;2023-09-19T07:36:41;8.60;;;7.10;;
58661;SDS011;44432;49.786;22.760;2023-09-19T07:39:12;8.00;;;6.80;;
58661;SDS011;44432;49.786;22.760;2023-09-19T07:41:43;10.50;;;6.40;;
58661;SDS011;44432;49.786;22.760;2023-09-19T07:44:14;12.70;;;7.80;;
58661;SDS011;44432;49.786;22.760;2023-09-19T07:46:44;9.00;;;8.10;;
58661;SDS011;44432;49.786;22.760;2023-09-19T07:49:18;11.10;;;7.80;;
58661;SDS011;44432;49.786;22.760;2023-09-19T07:51:49;10.30;;;7.30;;
58661;SDS011;44432;49.786;22.760;2023-09-19T07:54:22;10.30;;;8.30;;
58661;SDS011;44432;49.786;22.760;2023-09-19T07:56:53;11.50;;;7.80;;
58661;SDS011;44432;49.786;22.760;2023-09-19T07:59:23;9.80;;;7.70;;
58661;SDS011;44432;49.786;22.760;2023-09-19T08:01:54;10.30;;;8.40;;
58661;SDS011;44432;49.786;22.760;2023-09-19T08:04:25;10.20;;;7.30;;
58661;SDS011;44432;49.786;22.760;2023-09-19T08:09:28;8.90;;;7.20;;
58661;SDS011;44432;49.786;22.760;2023-09-19T08:12:01;11.70;;;7.60;;
58661;SDS011;44432;49.786;22.760;2023-09-19T08:14:33;10.60;;;7.60;;
58661;SDS011;44432;49.786;22.760;2023-09-19T08:17:04;13.60;;;7.90;;
58661;SDS011;44432;49.786;22.760;2023-09-19T08:19:35;8.30;;;7.20;;
58661;SDS011;44432;49.786;22.760;2023-09-19T08:22:08;8.20;;;7.10;;
58661;SDS011;44432;49.786;22.760;2023-09-19T08:24:39;11.50;;;7.80;;
58661;SDS011;44432;49.786;22.760;2023-09-19T08:27:10;10.90;;;7.30;;
58661;SDS011;44432;49.786;22.760;2023-09-19T08:29:41;9.20;;;7.30;;
58661;SDS011;44432;49.786;22.760;2023-09-19T08:32:12;11.50;;;9.10;;
58661;SDS011;44432;49.786;22.760;2023-09-19T08:34:43;10.00;;;7.50;;
58661;SDS011;44432;49.786;22.760;2023-09-19T08:37:14;10.20;;;8.00;;
58661;SDS011;44432;49.786;22.760;2023-09-19T08:39:46;10.10;;;7.60;;
58661;SDS011;44432;49.786;22.760;2023-09-19T08:42:17;9.00;;;6.80;;
58661;SDS011;44432;49.786;22.760;2023-09-19T08:44:49;9.70;;;6.70;;
58661;SDS011;44432;49.786;22.760;2023-09-19T08:47:20;10.00;;;6.90;;
58661;SDS011;44432;49.786;22.760;2023-09-19T08:50:03;11.40;;;7.20;;
58661;SDS011;44432;49.786;22.760;2023-09-19T08:52:42;13.70;;;8.30;;
58661;SDS011;44432;49.786;22.760;2023-09-19T08:55:15;10.40;;;7.90;;
58661;SDS011;44432;49.786;22.760;2023-09-19T08:57:50;12.50;;;8.30;;
58661;SDS011;44432;49.786;22.760;2023-09-19T09:00:26;9.00;;;7.20;;
58661;SDS011;44432;49.786;22.760;2023-09-19T09:02:58;10.20;;;7.90;;
58661;SDS011;44432;49.786;22.760;2023-09-19T09:05:30;11.70;;;10.00;;
58661;SDS011;44432;49.786;22.760;2023-09-19T09:08:01;9.70;;;7.10;;
58661;SDS011;44432;49.786;22.760;2023-09-19T09:10:34;7.60;;;5.70;;
58661;SDS011;44432;49.786;22.760;2023-09-19T09:13:08;17.60;;;12.60;;
58661;SDS011;44432;49.786;22.760;2023-09-19T09:15:42;8.00;;;6.00;;
58661;SDS011;44432;49.786;22.760;2023-09-19T09:18:13;8.60;;;5.30;;
58661;SDS011;44432;49.786;22.760;2023-09-19T09:20:44;7.00;;;5.30;;
58661;SDS011;44432;49.786;22.760;2023-09-19T09:23:16;6.40;;;4.50;;
58661;SDS011;44432;49.786;22.760;2023-09-19T09:25:50;6.00;;;4.80;;
58661;SDS011;44432;49.786;22.760;2023-09-19T09:28:30;6.40;;;5.20;;
58661;SDS011;44432;49.786;22.760;2023-09-19T09:31:03;7.00;;;5.90;;
58661;SDS011;44432;49.786;22.760;2023-09-19T09:33:37;8.30;;;5.80;;
58661;SDS011;44432;49.786;22.760;2023-09-19T09:36:09;9.10;;;6.20;;
58661;SDS011;44432;49.786;22.760;2023-09-19T09:38:44;7.10;;;5.50;;
58661;SDS011;44432;49.786;22.760;2023-09-19T09:41:16;7.00;;;4.50;;
58661;SDS011;44432;49.786;22.760;2023-09-19T09:43:55;6.10;;;4.80;;
58661;SDS011;44432;49.786;22.760;2023-09-19T09:46:43;9.20;;;4.70;;
58661;SDS011;44432;49.786;22.760;2023-09-19T09:49:41;7.30;;;5.10;;
58661;SDS011;44432;49.786;22.760;2023-09-19T09:52:45;7.10;;;5.50;;
58661;SDS011;44432;49.786;22.760;2023-09-19T09:55:16;6.60;;;4.50;;
58661;SDS011;44432;49.786;22.760;2023-09-19T09:57:48;4.20;;;3.80;;
58661;SDS011;44432;49.786;22.760;2023-09-19T10:00:53;5.10;;;3.50;;
58661;SDS011;44432;49.786;22.760;2023-09-19T10:03:35;7.90;;;4.40;;
58661;SDS011;44432;49.786;22.760;2023-09-19T10:06:12;4.00;;;2.60;;
58661;SDS011;44432;49.786;22.760;2023-09-19T10:08:58;4.60;;;2.50;;
58661;SDS011;44432;49.786;22.760;2023-09-19T10:11:41;5.80;;;4.20;;
58661;SDS011;44432;49.786;22.760;2023-09-19T10:14:12;5.90;;;3.70;;
58661;SDS011;44432;49.786;22.760;2023-09-19T10:16:51;4.40;;;3.50;;
58661;SDS011;44432;49.786;22.760;2023-09-19T10:19:29;5.90;;;4.10;;
58661;SDS011;44432;49.786;22.760;2023-09-19T10:22:05;6.60;;;4.70;;
58661;SDS011;44432;49.786;22.760;2023-09-19T10:27:08;8.50;;;4.70;;
58661;SDS011;44432;49.786;22.760;2023-09-19T10:29:39;7.20;;;4.50;;
58661;SDS011;44432;49.786;22.760;2023-09-19T10:32:15;8.90;;;5.40;;
58661;SDS011;44432;49.786;22.760;2023-09-19T10:34:47;8.90;;;5.10;;
58661;SDS011;44432;49.786;22.760;2023-09-19T10:37:22;12.20;;;6.20;;
58661;SDS011;44432;49.786;22.760;2023-09-19T10:39:56;11.20;;;7.20;;
58661;SDS011;44432;49.786;22.760;2023-09-19T10:42:27;10.60;;;8.10;;
58661;SDS011;44432;49.786;22.760;2023-09-19T10:45:00;7.80;;;5.50;;
58661;SDS011;44432;49.786;22.760;2023-09-19T10:47:36;7.90;;;5.30;;
58661;SDS011;44432;49.786;22.760;2023-09-19T10:50:07;6.40;;;5.10;;
58661;SDS011;44432;49.786;22.760;2023-09-19T10:52:49;9.70;;;5.70;;
58661;SDS011;44432;49.786;22.760;2023-09-19T10:55:28;8.00;;;5.00;;
58661;SDS011;44432;49.786;22.760;2023-09-19T10:58:03;7.30;;;5.20;;
58661;SDS011;44432;49.786;22.760;2023-09-19T11:00:54;7.00;;;5.00;;
58661;SDS011;44432;49.786;22.760;2023-09-19T11:03:33;10.70;;;4.90;;
58661;SDS011;44432;49.786;22.760;2023-09-19T11:06:11;6.70;;;5.10;;
58661;SDS011;44432;49.786;22.760;2023-09-19T11:08:55;10.00;;;5.40;;
58661;SDS011;44432;49.786;22.760;2023-09-19T11:11:45;7.10;;;4.90;;
58661;SDS011;44432;49.786;22.760;2023-09-19T11:14:32;7.30;;;5.40;;
58661;SDS011;44432;49.786;22.760;2023-09-19T11:17:31;6.60;;;5.20;;
58661;SDS011;44432;49.786;22.760;2023-09-19T11:20:21;9.00;;;5.80;;
58661;SDS011;44432;49.786;22.760;2023-09-19T11:23:19;9.60;;;7.90;;
58661;SDS011;44432;49.786;22.760;2023-09-19T11:25:54;9.20;;;7.20;;
58661;SDS011;44432;49.786;22.760;2023-09-19T11:28:29;6.50;;;5.20;;
58661;SDS011;44432;49.786;22.760;2023-09-19T11:34:38;8.30;;;5.80;;
58661;SDS011;44432;49.786;22.760;2023-09-19T11:40:39;8.50;;;5.90;;
58661;SDS011;44432;49.786;22.760;2023-09-19T11:43:29;6.40;;;5.70;;
58661;SDS011;44432;49.786;22.760;2023-09-19T11:46:05;11.50;;;6.90;;
58661;SDS011;44432;49.786;22.760;2023-09-19T11:48:38;10.60;;;6.30;;
58661;SDS011;44432;49.786;22.760;2023-09-19T11:51:13;9.00;;;6.50;;
58661;SDS011;44432;49.786;22.760;2023-09-19T11:53:51;11.10;;;7.40;;
58661;SDS011;44432;49.786;22.760;2023-09-19T11:56:25;9.60;;;7.70;;
58661;SDS011;44432;49.786;22.760;2023-09-19T11:58:57;9.10;;;7.20;;
58661;SDS011;44432;49.786;22.760;2023-09-19T12:01:30;10.30;;;7.30;;
58661;SDS011;44432;49.786;22.760;2023-09-19T12:04:02;9.30;;;7.10;;
58661;SDS011;44432;49.786;22.760;2023-09-19T12:06:34;9.90;;;7.40;;
58661;SDS011;44432;49.786;22.760;2023-09-19T12:09:07;11.30;;;7.80;;
58661;SDS011;44432;49.786;22.760;2023-09-19T12:11:44;8.50;;;6.60;;
58661;SDS011;44432;49.786;22.760;2023-09-19T12:14:22;11.30;;;6.90;;
58661;SDS011;44432;49.786;22.760;2023-09-19T12:16:57;9.50;;;6.90;;
58661;SDS011;44432;49.786;22.760;2023-09-19T12:19:29;9.00;;;6.90;;
58661;SDS011;44432;49.786;22.760;2023-09-19T12:22:00;9.90;;;6.60;;
58661;SDS011;44432;49.786;22.760;2023-09-19T12:24:33;9.30;;;7.40;;
58661;SDS011;44432;49.786;22.760;2023-09-19T12:29:44;9.80;;;7.60;;
58661;SDS011;44432;49.786;22.760;2023-09-19T12:32:16;9.80;;;7.60;;
58661;SDS011;44432;49.786;22.760;2023-09-19T12:34:51;11.10;;;8.40;;
58661;SDS011;44432;49.786;22.760;2023-09-19T12:37:23;13.10;;;8.30;;
58661;SDS011;44432;49.786;22.760;2023-09-19T12:40:04;9.40;;;7.30;;
58661;SDS011;44432;49.786;22.760;2023-09-19T12:42:45;13.00;;;10.90;;
58661;SDS011;44432;49.786;22.760;2023-09-19T12:45:16;13.20;;;7.70;;
58661;SDS011;44432;49.786;22.760;2023-09-19T12:51:02;10.00;;;7.10;;
58661;SDS011;44432;49.786;22.760;2023-09-19T12:53:38;8.10;;;6.20;;
58661;SDS011;44432;49.786;22.760;2023-09-19T12:56:10;10.10;;;6.90;;
58661;SDS011;44432;49.786;22.760;2023-09-19T12:58:51;7.40;;;6.00;;
58661;SDS011;44432;49.786;22.760;2023-09-19T13:01:23;5.60;;;4.60;;
58661;SDS011;44432;49.786;22.760;2023-09-19T13:04:16;7.50;;;5.10;;
58661;SDS011;44432;49.786;22.760;2023-09-19T13:06:48;8.20;;;4.90;;
58661;SDS011;44432;49.786;22.760;2023-09-19T13:09:20;7.90;;;5.40;;
58661;SDS011;44432;49.786;22.760;2023-09-19T13:11:52;6.60;;;5.30;;
58661;SDS011;44432;49.786;22.760;2023-09-19T13:14:24;7.90;;;3.80;;
58661;SDS011;44432;49.786;22.760;2023-09-19T13:16:57;9.20;;;5.30;;
58661;SDS011;44432;49.786;22.760;2023-09-19T13:19:35;7.60;;;4.50;;
58661;SDS011;44432;49.786;22.760;2023-09-19T13:25:14;7.40;;;4.10;;
58661;SDS011;44432;49.786;22.760;2023-09-19T13:27:47;6.50;;;4.40;;
58661;SDS011;44432;49.786;22.760;2023-09-19T13:30:20;4.90;;;3.70;;
58661;SDS011;44432;49.786;22.760;2023-09-19T13:33:03;6.20;;;3.00;;
58661;SDS011;44432;49.786;22.760;2023-09-19T13:35:35;4.40;;;3.20;;
58661;SDS011;44432;49.786;22.760;2023-09-19T13:38:07;4.30;;;2.90;;
58661;SDS011;44432;49.786;22.760;2023-09-19T13:40:39;4.90;;;2.80;;
58661;SDS011;44432;49.786;22.760;2023-09-19T13:43:10;5.30;;;2.90;;
58661;SDS011;44432;49.786;22.760;2023-09-19T13:45:41;3.30;;;2.50;;
58661;SDS011;44432;49.786;22.760;2023-09-19T13:48:12;4.60;;;2.80;;
58661;SDS011;44432;49.786;22.760;2023-09-19T13:50:43;5.20;;;3.30;;
58661;SDS011;44432;49.786;22.760;2023-09-19T13:53:14;4.70;;;2.50;;
58661;SDS011;44432;49.786;22.760;2023-09-19T13:55:45;3.30;;;2.40;;
58661;SDS011;44432;49.786;22.760;2023-09-19T13:58:17;2.70;;;2.20;;
58661;SDS011;44432;49.786;22.760;2023-09-19T14:00:49;3.60;;;2.30;;
58661;SDS011;44432;49.786;22.760;2023-09-19T14:03:22;4.10;;;2.30;;
58661;SDS011;44432;49.786;22.760;2023-09-19T14:05:56;3.70;;;2.00;;
58661;SDS011;44432;49.786;22.760;2023-09-19T14:08:26;3.60;;;2.70;;
58661;SDS011;44432;49.786;22.760;2023-09-19T14:10:57;5.30;;;1.90;;
58661;SDS011;44432;49.786;22.760;2023-09-19T14:13:28;2.70;;;1.90;;
58661;SDS011;44432;49.786;22.760;2023-09-19T14:16:02;5.80;;;2.20;;
58661;SDS011;44432;49.786;22.760;2023-09-19T14:18:33;1.80;;;1.70;;
58661;SDS011;44432;49.786;22.760;2023-09-19T14:21:04;3.90;;;2.10;;
58661;SDS011;44432;49.786;22.760;2023-09-19T14:23:39;3.80;;;2.10;;
58661;SDS011;44432;49.786;22.760;2023-09-19T14:26:11;3.40;;;2.10;;
58661;SDS011;44432;49.786;22.760;2023-09-19T14:28:42;2.60;;;2.10;;
58661;SDS011;44432;49.786;22.760;2023-09-19T14:31:12;5.90;;;2.40;;
58661;SDS011;44432;49.786;22.760;2023-09-19T14:33:43;3.50;;;2.40;;
58661;SDS011;44432;49.786;22.760;2023-09-19T14:36:14;3.00;;;2.30;;
58661;SDS011;44432;49.786;22.760;2023-09-19T14:38:46;3.60;;;2.80;;
58661;SDS011;44432;49.786;22.760;2023-09-19T14:41:22;3.80;;;2.60;;
58661;SDS011;44432;49.786;22.760;2023-09-19T14:43:53;11.40;;;6.50;;
58661;SDS011;44432;49.786;22.760;2023-09-19T14:46:24;14.60;;;10.10;;
58661;SDS011;44432;49.786;22.760;2023-09-19T14:48:55;14.50;;;10.90;;
58661;SDS011;44432;49.786;22.760;2023-09-19T14:51:28;8.40;;;6.60;;
58661;SDS011;44432;49.786;22.760;2023-09-19T14:54:00;6.10;;;4.70;;
58661;SDS011;44432;49.786;22.760;2023-09-19T14:56:31;26.90;;;22.40;;
58661;SDS011;44432;49.786;22.760;2023-09-19T14:59:02;10.90;;;5.80;;
58661;SDS011;44432;49.786;22.760;2023-09-19T15:01:35;12.60;;;11.30;;
58661;SDS011;44432;49.786;22.760;2023-09-19T15:04:06;16.30;;;14.60;;
58661;SDS011;44432;49.786;22.760;2023-09-19T15:06:37;9.50;;;7.40;;
58661;SDS011;44432;49.786;22.760;2023-09-19T15:09:07;9.90;;;6.60;;
58661;SDS011;44432;49.786;22.760;2023-09-19T15:11:39;12.60;;;7.60;;
58661;SDS011;44432;49.786;22.760;2023-09-19T15:14:10;7.70;;;4.40;;
58661;SDS011;44432;49.786;22.760;2023-09-19T15:16:40;12.50;;;5.70;;
58661;SDS011;44432;49.786;22.760;2023-09-19T15:19:11;7.10;;;4.10;;
58661;SDS011;44432;49.786;22.760;2023-09-19T15:21:42;7.00;;;4.30;;
58661;SDS011;44432;49.786;22.760;2023-09-19T15:24:13;8.60;;;4.30;;
58661;SDS011;44432;49.786;22.760;2023-09-19T15:26:44;10.20;;;5.00;;
58661;SDS011;44432;49.786;22.760;2023-09-19T15:29:15;6.90;;;4.50;;